Time;durP1;ratioP1;P1;durP2;ratioP2;P2;SDS_P1;SDS_P2;PMS_P1;PMS_P2;Temp;Humidity;BMP_temperature;BMP_pressure;BME280_temperature;BME280_humidity;BME280_pressure;Samples;Min_cycle;Max_cycle;Signal;HPM_P1;HPM_P2
2024/01/07 00:00:20;;;;;;;19.10;13.45;;;6.40;99.90;;;;;;5021688;28;20568;-76
2024/01/07 00:03:06;;;;;;;19.48;12.10;;;6.40;99.90;;;;;;5020398;28;20206;-75
2024/01/07 00:05:51;;;;;;;25.10;14.45;;;6.40;99.90;;;;;;5031367;28;20213;-75
2024/01/07 00:08:37;;;;;;;20.30;13.80;;;6.40;99.90;;;;;;5029467;28;20344;-75
2024/01/07 00:11:24;;;;;;;22.37;14.03;;;6.40;99.90;;;;;;5027626;28;20468;-75
2024/01/07 00:14:09;;;;;;;21.50;14.60;;;6.40;99.90;;;;;;5023421;28;20566;-75
2024/01/07 00:16:56;;;;;;;22.70;12.47;;;6.40;99.90;;;;;;5023564;28;20499;-75
2024/01/07 00:19:41;;;;;;;21.67;13.57;;;6.40;99.90;;;;;;5030472;28;20467;-75
2024/01/07 00:22:27;;;;;;;17.23;12.20;;;6.40;99.90;;;;;;5030122;28;20976;-75
2024/01/07 00:25:13;;;;;;;19.33;13.38;;;6.40;99.90;;;;;;5029245;28;20445;-75
2024/01/07 00:27:58;;;;;;;20.60;13.60;;;6.30;99.90;;;;;;5023811;28;20232;-75
2024/01/07 00:30:44;;;;;;;20.37;12.90;;;6.40;99.90;;;;;;5039174;28;20521;-75
2024/01/07 00:33:32;;;;;;;17.53;12.67;;;6.40;99.90;;;;;;5031296;28;20459;-75
2024/01/07 00:36:18;;;;;;;21.70;13.43;;;6.40;99.90;;;;;;5030122;28;20459;-74
2024/01/07 00:39:04;;;;;;;23.30;13.80;;;6.50;99.90;;;;;;5031295;28;21008;-76
2024/01/07 00:41:49;;;;;;;18.15;11.98;;;6.50;99.90;;;;;;5032617;28;20434;-75
2024/01/07 00:44:35;;;;;;;18.17;11.80;;;6.50;99.90;;;;;;5029337;28;20216;-75
2024/01/07 00:47:20;;;;;;;16.33;12.00;;;6.50;99.90;;;;;;5033433;28;20535;-75
2024/01/07 00:50:08;;;;;;;17.35;12.35;;;6.50;99.90;;;;;;5032392;28;20265;-75
2024/01/07 00:52:53;;;;;;;18.27;11.75;;;6.50;99.90;;;;;;5033324;28;20713;-75
2024/01/07 00:55:39;;;;;;;18.20;12.20;;;6.50;99.90;;;;;;5030936;28;20694;-75
2024/01/07 00:58:24;;;;;;;18.77;12.00;;;6.50;99.90;;;;;;5026657;28;20477;-75
2024/01/07 01:01:10;;;;;;;13.40;10.30;;;6.50;99.90;;;;;;5032348;28;20530;-75
2024/01/07 01:03:57;;;;;;;15.50;10.80;;;6.50;99.90;;;;;;5034398;28;20822;-75
2024/01/07 01:06:44;;;;;;;16.30;10.45;;;6.50;99.90;;;;;;5035495;28;20449;-74
2024/01/07 01:09:30;;;;;;;13.33;9.80;;;6.50;99.90;;;;;;5026788;28;20259;-75
2024/01/07 01:12:15;;;;;;;14.43;10.20;;;6.60;99.90;;;;;;5026286;28;20471;-73
2024/01/07 01:15:01;;;;;;;14.30;10.03;;;6.60;99.90;;;;;;5031524;28;20446;-75
2024/01/07 01:17:47;;;;;;;15.87;11.30;;;6.60;99.90;;;;;;5040240;28;20462;-74
2024/01/07 01:20:32;;;;;;;11.20;9.30;;;6.60;99.90;;;;;;5031025;28;20447;-75
2024/01/07 01:23:19;;;;;;;14.63;10.37;;;6.60;99.90;;;;;;5034288;28;20446;-75
2024/01/07 01:26:05;;;;;;;14.77;9.90;;;6.60;99.90;;;;;;5031606;28;20957;-75
2024/01/07 01:28:50;;;;;;;17.77;9.90;;;6.50;99.90;;;;;;5029721;28;20475;-75
2024/01/07 01:31:36;;;;;;;14.80;10.50;;;6.50;99.90;;;;;;5030411;28;20825;-74
2024/01/07 01:34:22;;;;;;;15.85;10.30;;;6.60;99.90;;;;;;5032226;28;20449;-75
2024/01/07 01:37:09;;;;;;;11.33;9.20;;;6.60;99.90;;;;;;5032598;28;20204;-75
2024/01/07 01:39:56;;;;;;;15.20;9.90;;;6.60;99.90;;;;;;5024979;28;20444;-74
2024/01/07 01:42:45;;;;;;;15.40;10.03;;;6.60;99.90;;;;;;5035307;28;20443;-75
2024/01/07 01:45:30;;;;;;;14.67;9.30;;;6.70;99.90;;;;;;5036066;28;20464;-75
2024/01/07 01:48:16;;;;;;;14.70;9.20;;;6.60;99.90;;;;;;5033212;28;20464;-77
2024/01/07 01:51:02;;;;;;;12.48;9.18;;;6.60;99.90;;;;;;5033745;28;20469;-75
2024/01/07 01:53:50;;;;;;;13.83;9.87;;;6.60;99.90;;;;;;5030876;28;20211;-75
2024/01/07 01:56:37;;;;;;;16.17;10.23;;;6.60;99.90;;;;;;5029230;28;20537;-75
2024/01/07 01:59:23;;;;;;;13.15;9.52;;;6.60;99.90;;;;;;5028780;28;20515;-75
2024/01/07 02:02:09;;;;;;;13.90;10.87;;;6.60;99.90;;;;;;5041576;28;20210;-74
2024/01/07 02:04:54;;;;;;;14.53;10.53;;;6.50;99.90;;;;;;5037410;28;20521;-75
2024/01/07 02:07:40;;;;;;;15.82;9.93;;;6.60;99.90;;;;;;5043521;28;20462;-75
2024/01/07 02:10:27;;;;;;;17.10;9.90;;;6.60;99.90;;;;;;5026146;28;20691;-75
2024/01/07 02:13:13;;;;;;;12.10;8.80;;;6.60;99.90;;;;;;5026227;28;21187;-76
2024/01/07 02:15:59;;;;;;;13.83;10.03;;;6.60;99.90;;;;;;5027481;28;20454;-75
2024/01/07 02:18:46;;;;;;;17.53;12.03;;;6.60;99.90;;;;;;5027503;28;20584;-75
2024/01/07 02:21:32;;;;;;;17.63;11.70;;;6.60;99.90;;;;;;5028269;28;20526;-74
2024/01/07 02:24:19;;;;;;;14.27;9.77;;;6.50;99.90;;;;;;5027406;28;20455;-75
2024/01/07 02:27:05;;;;;;;15.20;10.43;;;6.50;99.90;;;;;;5036412;28;20508;-75
2024/01/07 02:29:51;;;;;;;15.20;10.70;;;6.50;99.90;;;;;;5033625;28;20457;-76
2024/01/07 02:32:37;;;;;;;15.63;10.53;;;6.50;99.90;;;;;;5032715;28;20482;-75
2024/01/07 02:35:23;;;;;;;14.63;10.03;;;6.60;99.90;;;;;;5025142;28;20445;-75
2024/01/07 02:38:09;;;;;;;17.10;11.73;;;6.60;99.90;;;;;;5028720;28;20477;-75
2024/01/07 02:40:56;;;;;;;17.47;11.27;;;6.60;99.90;;;;;;5027487;28;20450;-75
2024/01/07 02:43:41;;;;;;;14.87;10.70;;;6.50;99.90;;;;;;5025285;28;20459;-75
2024/01/07 02:46:27;;;;;;;17.83;10.67;;;6.40;99.90;;;;;;5031564;28;20428;-74
2024/01/07 02:49:13;;;;;;;15.88;11.27;;;6.40;99.90;;;;;;5022636;28;21012;-74
2024/01/07 02:51:59;;;;;;;17.80;10.53;;;6.40;99.90;;;;;;5031969;28;20249;-75
2024/01/07 02:54:44;;;;;;;17.70;9.95;;;6.50;99.90;;;;;;5036277;28;20443;-75
2024/01/07 02:57:31;;;;;;;17.23;10.27;;;6.50;99.90;;;;;;5032269;28;20218;-75
2024/01/07 03:00:18;;;;;;;20.77;11.90;;;6.50;99.90;;;;;;5034966;28;20275;-74
2024/01/07 03:03:04;;;;;;;19.47;12.20;;;6.40;99.90;;;;;;5035057;28;20504;-75
2024/01/07 03:05:50;;;;;;;15.53;10.60;;;6.40;99.90;;;;;;5032978;28;20544;-76
2024/01/07 03:08:35;;;;;;;14.85;10.82;;;6.40;99.90;;;;;;5029667;28;20547;-74
2024/01/07 03:11:21;;;;;;;17.57;11.10;;;6.40;99.90;;;;;;5026801;28;20228;-74
2024/01/07 03:14:08;;;;;;;18.30;9.43;;;6.40;99.90;;;;;;5035184;28;20425;-75
2024/01/07 03:16:53;;;;;;;16.50;11.27;;;6.40;99.90;;;;;;5037603;28;20838;-75
2024/01/07 03:19:39;;;;;;;15.75;10.43;;;6.40;99.90;;;;;;5030840;28;20849;-74
2024/01/07 03:22:25;;;;;;;14.20;10.60;;;6.40;99.90;;;;;;5033348;28;20205;-75
2024/01/07 03:25:11;;;;;;;14.03;9.03;;;6.50;99.90;;;;;;5036116;28;20433;-75
2024/01/07 03:27:56;;;;;;;14.82;10.13;;;6.40;99.90;;;;;;5038656;28;20461;-75
2024/01/07 03:30:43;;;;;;;13.30;9.73;;;6.40;99.90;;;;;;5036447;28;20211;-75
2024/01/07 03:33:29;;;;;;;13.50;9.50;;;6.40;99.90;;;;;;5030389;28;20206;-75
2024/01/07 03:36:15;;;;;;;12.07;8.98;;;6.40;99.90;;;;;;5032906;28;20271;-75
2024/01/07 03:39:00;;;;;;;11.15;7.82;;;6.40;99.90;;;;;;5030140;28;20231;-75
2024/01/07 03:41:46;;;;;;;11.80;7.60;;;6.30;99.90;;;;;;5039172;28;20385;-74
2024/01/07 03:44:32;;;;;;;12.50;7.60;;;6.40;99.90;;;;;;5029683;28;20346;-75
2024/01/07 03:47:19;;;;;;;13.55;8.27;;;6.40;99.90;;;;;;5033285;28;20569;-75
2024/01/07 03:50:05;;;;;;;14.47;7.70;;;6.40;99.90;;;;;;5029380;28;20210;-75
2024/01/07 03:52:50;;;;;;;12.45;8.80;;;6.40;99.90;;;;;;5032188;28;20488;-75
2024/01/07 03:55:36;;;;;;;18.92;8.50;;;6.40;99.90;;;;;;5025849;28;20207;-75
2024/01/07 03:58:22;;;;;;;10.87;7.60;;;6.40;99.90;;;;;;5029236;28;20584;-75
2024/01/07 04:01:07;;;;;;;10.63;7.70;;;6.30;99.90;;;;;;5035087;28;20432;-75
2024/01/07 04:03:54;;;;;;;13.65;8.38;;;6.40;99.90;;;;;;5036964;28;20432;-74
2024/01/07 04:06:40;;;;;;;15.40;9.27;;;6.40;99.90;;;;;;5037539;28;20214;-75
2024/01/07 04:09:26;;;;;;;14.38;8.00;;;6.40;99.90;;;;;;5025096;28;20520;-74
2024/01/07 04:12:11;;;;;;;12.10;9.60;;;6.30;99.90;;;;;;5040726;28;20228;-75
2024/01/07 04:14:57;;;;;;;13.30;8.47;;;6.30;99.90;;;;;;5023751;28;20444;-75
2024/01/07 04:17:43;;;;;;;11.77;8.20;;;6.30;99.90;;;;;;5036701;28;20778;-75
2024/01/07 04:20:30;;;;;;;13.48;8.35;;;6.30;99.90;;;;;;5030800;28;20904;-75
2024/01/07 04:23:15;;;;;;;11.83;8.50;;;6.30;99.90;;;;;;5027506;28;20205;-76
2024/01/07 04:26:01;;;;;;;11.55;8.30;;;6.30;99.90;;;;;;5024944;28;20428;-74
2024/01/07 04:28:47;;;;;;;12.50;8.13;;;6.30;99.90;;;;;;5040443;28;20590;-74
2024/01/07 04:31:32;;;;;;;10.27;7.60;;;6.40;99.90;;;;;;5035904;28;20477;-75
2024/01/07 04:34:18;;;;;;;13.98;8.35;;;6.40;99.90;;;;;;5032278;28;20202;-75
2024/01/07 04:37:05;;;;;;;11.75;8.15;;;6.30;99.90;;;;;;5030741;28;20701;-75
2024/01/07 04:39:51;;;;;;;10.90;7.90;;;6.30;99.90;;;;;;5039678;28;20206;-75
2024/01/07 04:42:36;;;;;;;11.73;8.40;;;6.30;99.90;;;;;;5032383;28;20807;-75
2024/01/07 04:45:22;;;;;;;12.00;8.70;;;6.30;99.90;;;;;;5031596;28;20663;-75
2024/01/07 04:48:08;;;;;;;18.30;7.37;;;6.30;99.90;;;;;;5043648;28;20926;-75
2024/01/07 04:50:54;;;;;;;13.93;7.57;;;6.20;99.90;;;;;;5041358;28;20549;-74
2024/01/07 04:53:41;;;;;;;12.47;8.00;;;6.20;99.90;;;;;;5033907;28;20265;-75
2024/01/07 04:56:26;;;;;;;12.90;8.03;;;6.30;99.90;;;;;;5037194;28;20423;-75
2024/01/07 04:59:12;;;;;;;13.75;7.88;;;6.20;99.90;;;;;;5037823;28;20974;-76
2024/01/07 05:01:58;;;;;;;13.33;8.50;;;6.20;99.90;;;;;;5028223;28;20206;-75
2024/01/07 05:04:43;;;;;;;11.52;8.30;;;6.20;99.90;;;;;;5041754;28;20429;-75
2024/01/07 05:07:29;;;;;;;13.05;7.63;;;6.20;99.90;;;;;;5031756;28;20204;-75
2024/01/07 05:10:16;;;;;;;16.55;7.72;;;6.20;99.90;;;;;;5040457;28;20205;-76
2024/01/07 05:13:05;;;;;;;12.97;8.87;;;6.20;99.90;;;;;;5045933;28;20230;-75
2024/01/07 05:15:53;;;;;;;19.35;9.85;;;6.20;99.90;;;;;;5039764;28;20438;-75
2024/01/07 05:18:38;;;;;;;14.82;8.60;;;6.20;99.90;;;;;;5039020;28;20222;-75
2024/01/07 05:21:24;;;;;;;12.80;8.27;;;6.20;99.90;;;;;;5044127;28;20210;-75
2024/01/07 05:24:10;;;;;;;11.00;7.13;;;6.20;99.90;;;;;;5038585;28;20209;-75
2024/01/07 05:26:57;;;;;;;12.50;8.30;;;6.20;99.90;;;;;;5030449;28;20211;-75
2024/01/07 05:29:46;;;;;;;12.60;7.55;;;6.30;99.90;;;;;;5053319;28;20230;-75
2024/01/07 05:32:32;;;;;;;14.10;7.97;;;6.30;99.90;;;;;;5041741;28;20707;-76
2024/01/07 05:35:18;;;;;;;14.32;7.95;;;6.30;99.90;;;;;;5039155;28;20205;-75
2024/01/07 05:38:04;;;;;;;12.93;8.98;;;6.30;99.90;;;;;;5045323;28;20230;-75
2024/01/07 05:40:49;;;;;;;12.70;8.40;;;6.20;99.90;;;;;;5047183;28;20206;-75
2024/01/07 05:43:37;;;;;;;13.37;8.50;;;6.20;99.90;;;;;;5036044;28;20818;-75
2024/01/07 05:46:23;;;;;;;12.37;8.50;;;6.20;99.90;;;;;;5031371;28;20534;-75
2024/01/07 05:49:09;;;;;;;12.20;7.93;;;6.20;99.90;;;;;;5037606;28;20468;-75
2024/01/07 05:51:55;;;;;;;15.13;9.05;;;6.10;99.90;;;;;;5047814;28;20295;-75
2024/01/07 05:54:41;;;;;;;12.35;8.30;;;6.10;99.90;;;;;;5048094;28;20717;-75
2024/01/07 05:57:26;;;;;;;16.97;9.00;;;6.10;99.90;;;;;;5037073;28;20218;-75
2024/01/07 06:00:15;;;;;;;12.98;8.45;;;6.10;99.90;;;;;;5036959;28;20445;-75
2024/01/07 06:03:00;;;;;;;14.90;9.13;;;6.10;99.90;;;;;;5041657;28;20211;-75
2024/01/07 06:05:46;;;;;;;15.30;9.80;;;6.10;99.90;;;;;;5036887;28;20592;-75
2024/01/07 06:08:32;;;;;;;15.73;8.60;;;6.10;99.90;;;;;;5028537;28;20472;-75
2024/01/07 06:11:20;;;;;;;16.83;10.07;;;6.10;99.90;;;;;;5040784;28;20213;-75
2024/01/07 06:14:05;;;;;;;14.20;10.13;;;6.10;99.90;;;;;;5031535;28;20826;-75
2024/01/07 06:16:53;;;;;;;14.85;9.68;;;6.10;99.90;;;;;;5043891;28;20251;-75
2024/01/07 06:19:38;;;;;;;14.25;9.73;;;6.10;99.90;;;;;;5038022;28;20246;-75
2024/01/07 06:22:24;;;;;;;20.08;10.07;;;6.10;99.90;;;;;;5037249;28;20408;-75
2024/01/07 06:25:10;;;;;;;15.35;10.68;;;6.10;99.90;;;;;;5029770;28;20301;-74
2024/01/07 06:27:56;;;;;;;18.08;11.10;;;6.20;99.90;;;;;;5041694;28;20225;-75
2024/01/07 06:30:41;;;;;;;20.30;11.98;;;6.10;99.90;;;;;;5044030;28;20208;-75
2024/01/07 06:33:28;;;;;;;22.37;12.43;;;6.10;99.90;;;;;;5040553;28;20243;-75
2024/01/07 06:36:14;;;;;;;17.20;12.17;;;6.10;99.90;;;;;;5042677;28;20480;-75
2024/01/07 06:38:59;;;;;;;21.52;13.40;;;6.10;99.90;;;;;;5029518;28;20521;-75
2024/01/07 06:41:45;;;;;;;21.80;14.50;;;6.00;99.90;;;;;;5037727;28;20290;-75
2024/01/07 06:44:31;;;;;;;22.90;14.97;;;6.00;99.90;;;;;;5037293;28;20434;-74
2024/01/07 06:47:17;;;;;;;21.75;13.32;;;6.00;99.90;;;;;;5034619;28;20431;-75
2024/01/07 06:50:04;;;;;;;22.75;13.10;;;6.10;99.90;;;;;;5035895;28;20215;-75
2024/01/07 06:52:49;;;;;;;20.95;14.48;;;6.00;99.90;;;;;;5041712;28;20225;-75
2024/01/07 06:55:35;;;;;;;27.52;15.63;;;6.00;99.90;;;;;;5035108;28;20210;-75
2024/01/07 06:58:21;;;;;;;23.92;14.93;;;6.00;99.90;;;;;;5030788;28;20272;-75
2024/01/07 07:01:08;;;;;;;22.80;14.57;;;6.00;99.90;;;;;;5041234;28;20218;-75
2024/01/07 07:03:53;;;;;;;23.83;14.10;;;6.00;99.90;;;;;;5044294;28;20221;-75
2024/01/07 07:06:40;;;;;;;24.73;14.52;;;6.00;99.90;;;;;;5033377;28;20432;-75
2024/01/07 07:09:26;;;;;;;23.90;15.35;;;6.00;99.90;;;;;;5036162;28;20377;-76
2024/01/07 07:12:13;;;;;;;26.27;15.50;;;6.00;99.90;;;;;;5036016;28;20245;-75
2024/01/07 07:14:59;;;;;;;21.60;14.73;;;6.00;99.90;;;;;;5035981;28;20210;-75
2024/01/07 07:17:44;;;;;;;31.25;15.75;;;6.00;99.90;;;;;;5034748;28;20453;-75
2024/01/07 07:20:30;;;;;;;19.70;14.05;;;5.90;99.90;;;;;;5034677;28;20310;-75
2024/01/07 07:23:17;;;;;;;18.70;13.15;;;5.90;99.90;;;;;;5032682;28;20314;-74
2024/01/07 07:26:03;;;;;;;23.08;14.23;;;6.00;99.90;;;;;;5042211;28;20680;-75
2024/01/07 07:28:48;;;;;;;21.10;15.13;;;6.00;99.90;;;;;;5038972;28;20353;-74
2024/01/07 07:31:34;;;;;;;25.10;15.52;;;6.00;99.90;;;;;;5044567;28;20219;-77
2024/01/07 07:34:20;;;;;;;26.83;15.85;;;5.90;99.90;;;;;;5043638;28;20259;-76
2024/01/07 07:37:05;;;;;;;19.92;14.52;;;5.90;99.90;;;;;;5038293;28;20204;-76
2024/01/07 07:39:52;;;;;;;19.83;13.68;;;5.90;99.90;;;;;;5028479;28;20226;-76
2024/01/07 07:42:38;;;;;;;20.15;13.90;;;5.90;99.90;;;;;;5029271;28;20292;-76
2024/01/07 07:45:23;;;;;;;18.08;13.80;;;5.90;99.90;;;;;;5041970;28;20273;-76
2024/01/07 07:48:09;;;;;;;21.88;14.25;;;5.90;99.90;;;;;;5040699;28;20306;-76
2024/01/07 07:50:55;;;;;;;20.83;13.77;;;5.90;99.90;;;;;;5036482;28;20206;-76
2024/01/07 07:53:41;;;;;;;19.60;14.10;;;5.80;99.90;;;;;;5038232;28;20225;-76
2024/01/07 07:56:28;;;;;;;19.75;13.70;;;5.80;99.90;;;;;;5029883;28;20762;-76
2024/01/07 07:59:14;;;;;;;20.80;13.77;;;5.80;99.90;;;;;;5037826;28;20272;-76
2024/01/07 08:02:00;;;;;;;19.65;15.05;;;5.80;99.90;;;;;;5039781;28;20330;-76
2024/01/07 08:04:45;;;;;;;21.98;14.75;;;5.80;99.90;;;;;;5042602;28;20372;-76
2024/01/07 08:07:31;;;;;;;19.38;13.98;;;5.70;99.90;;;;;;5035196;28;20209;-76
2024/01/07 08:10:17;;;;;;;18.55;14.05;;;5.60;99.90;;;;;;5033323;28;20210;-75
2024/01/07 08:13:04;;;;;;;18.85;12.80;;;5.60;99.90;;;;;;5039650;28;20714;-76
2024/01/07 08:15:50;;;;;;;19.90;14.98;;;5.60;99.90;;;;;;5033829;28;20586;-76
2024/01/07 08:18:36;;;;;;;19.98;13.40;;;5.50;99.90;;;;;;5041859;28;20271;-76
2024/01/07 08:21:22;;;;;;;21.52;14.05;;;5.60;99.90;;;;;;5044133;28;20686;-76
2024/01/07 08:24:10;;;;;;;22.92;15.65;;;5.50;99.90;;;;;;5029416;28;20336;-76
2024/01/07 08:26:55;;;;;;;20.90;13.98;;;5.60;99.90;;;;;;5032907;28;20206;-75
2024/01/07 08:29:45;;;;;;;19.80;13.15;;;5.60;99.90;;;;;;5041815;28;20222;-76
2024/01/07 08:32:30;;;;;;;18.42;13.52;;;5.50;99.90;;;;;;5018464;28;20221;-75
2024/01/07 08:35:16;;;;;;;19.00;13.73;;;5.50;99.90;;;;;;5027879;28;20300;-75
2024/01/07 08:38:02;;;;;;;17.27;12.50;;;5.50;99.90;;;;;;5036122;28;20367;-75
2024/01/07 08:40:47;;;;;;;19.65;13.23;;;5.60;99.90;;;;;;5029981;28;20282;-76
2024/01/07 08:43:33;;;;;;;18.67;12.73;;;5.50;99.90;;;;;;5033582;28;20202;-75
2024/01/07 08:46:22;;;;;;;16.10;11.63;;;5.50;99.90;;;;;;5037705;28;20242;-76
2024/01/07 08:49:08;;;;;;;17.88;11.95;;;5.50;99.90;;;;;;5037688;28;20640;-77
2024/01/07 08:51:55;;;;;;;17.17;12.30;;;5.50;99.90;;;;;;5040663;28;20213;-75
2024/01/07 08:54:41;;;;;;;19.90;13.07;;;5.50;99.90;;;;;;5031998;28;20207;-76
2024/01/07 08:57:26;;;;;;;16.88;11.55;;;5.50;99.90;;;;;;5041423;28;20211;-77
2024/01/07 09:00:13;;;;;;;16.08;11.27;;;5.50;99.90;;;;;;5047755;28;20224;-77
2024/01/07 09:03:00;;;;;;;16.50;10.90;;;5.50;99.90;;;;;;5038773;28;20265;-77
2024/01/07 09:05:45;;;;;;;12.95;10.52;;;5.50;99.90;;;;;;5043829;28;20338;-76
2024/01/07 09:08:31;;;;;;;14.68;10.50;;;5.50;99.90;;;;;;5041750;28;20249;-76
2024/01/07 09:11:20;;;;;;;14.10;10.00;;;5.50;99.90;;;;;;5047567;28;20201;-76
2024/01/07 09:14:06;;;;;;;15.43;10.48;;;5.50;99.90;;;;;;5042183;28;20821;-77
2024/01/07 09:16:53;;;;;;;12.45;9.95;;;5.50;99.90;;;;;;5038868;28;20217;-76
2024/01/07 09:19:40;;;;;;;15.95;10.70;;;5.40;99.90;;;;;;5031712;28;20692;-75
2024/01/07 09:22:25;;;;;;;21.38;11.82;;;5.40;99.90;;;;;;5039162;28;20253;-76
2024/01/07 09:25:12;;;;;;;13.65;9.93;;;5.40;99.90;;;;;;5040744;28;20252;-76
2024/01/07 09:27:57;;;;;;;16.35;10.30;;;5.40;99.90;;;;;;5039036;28;20233;-76
2024/01/07 09:30:43;;;;;;;11.60;9.60;;;5.40;99.90;;;;;;5040936;28;20209;-77
2024/01/07 09:33:29;;;;;;;14.35;9.63;;;5.50;99.90;;;;;;5032390;28;20230;-76
2024/01/07 09:36:16;;;;;;;13.05;8.68;;;5.60;99.90;;;;;;5039337;28;20194;-75
2024/01/07 09:39:01;;;;;;;13.23;9.70;;;5.60;99.90;;;;;;5045208;28;20222;-74
2024/01/07 09:41:47;;;;;;;14.98;9.40;;;5.60;99.90;;;;;;5048253;28;20225;-74
2024/01/07 09:44:33;;;;;;;14.48;8.43;;;5.70;99.90;;;;;;5025807;28;20304;-74
2024/01/07 09:47:18;;;;;;;11.80;8.27;;;5.60;99.90;;;;;;5045342;28;20687;-75
2024/01/07 09:50:05;;;;;;;14.02;9.82;;;5.70;99.90;;;;;;5035529;28;20703;-74
2024/01/07 09:52:57;;;;;;;10.77;8.77;;;5.70;99.90;;;;;;5025795;28;20202;-74
2024/01/07 09:55:54;;;;;;;14.27;9.43;;;5.70;99.90;;;;;;5036370;28;20206;-74
2024/01/07 09:58:40;;;;;;;14.18;10.52;;;5.70;99.90;;;;;;5035635;28;20262;-74
2024/01/07 10:01:26;;;;;;;17.00;10.70;;;5.60;99.90;;;;;;5030082;28;20203;-74
2024/01/07 10:04:11;;;;;;;14.57;10.10;;;5.60;99.90;;;;;;5046597;28;20689;-74
2024/01/07 10:06:57;;;;;;;13.57;9.57;;;5.50;99.90;;;;;;5040878;28;20288;-74
2024/01/07 10:09:44;;;;;;;11.68;8.25;;;5.50;99.90;;;;;;5048571;28;20237;-74
2024/01/07 10:12:31;;;;;;;15.25;10.25;;;5.40;99.90;;;;;;5035249;28;20209;-74
2024/01/07 10:15:17;;;;;;;13.85;9.35;;;5.40;99.90;;;;;;5023493;28;20688;-74
2024/01/07 10:18:05;;;;;;;14.20;8.90;;;5.40;99.90;;;;;;5031555;28;20734;-74
2024/01/07 10:20:50;;;;;;;12.55;8.20;;;5.40;99.90;;;;;;5046041;28;20213;-75
2024/01/07 10:23:36;;;;;;;10.85;8.18;;;5.40;99.90;;;;;;5031670;28;20197;-74
2024/01/07 10:26:23;;;;;;;12.25;9.38;;;5.50;99.90;;;;;;5031890;28;20206;-74
2024/01/07 10:29:09;;;;;;;12.68;8.80;;;5.40;99.90;;;;;;5038809;28;20226;-75
2024/01/07 10:31:57;;;;;;;12.90;9.15;;;5.40;99.90;;;;;;5040141;28;20205;-76
2024/01/07 10:34:46;;;;;;;21.75;9.13;;;5.30;99.90;;;;;;5034793;28;20218;-75
2024/01/07 10:37:32;;;;;;;12.27;9.32;;;5.30;99.90;;;;;;5035500;28;20205;-75
2024/01/07 10:40:18;;;;;;;11.07;8.38;;;5.20;99.90;;;;;;5048352;28;20201;-75
2024/01/07 10:43:06;;;;;;;11.38;8.98;;;5.20;99.90;;;;;;5026093;28;20521;-75
2024/01/07 10:45:52;;;;;;;9.88;8.48;;;5.00;99.90;;;;;;5030341;28;20199;-75
2024/01/07 10:48:39;;;;;;;11.95;9.10;;;5.00;99.90;;;;;;5037325;28;20241;-75
2024/01/07 10:51:28;;;;;;;10.80;7.57;;;5.00;99.90;;;;;;5051546;28;20212;-74
2024/01/07 10:54:17;;;;;;;11.82;8.85;;;4.90;99.90;;;;;;5035582;28;20233;-74
2024/01/07 10:57:10;;;;;;;10.18;7.93;;;4.80;99.90;;;;;;5034079;28;20257;-73
2024/01/07 11:00:00;;;;;;;10.55;8.15;;;4.80;99.90;;;;;;5042069;28;20201;-75
2024/01/07 11:02:54;;;;;;;12.13;7.60;;;4.80;99.90;;;;;;5035832;28;20210;-75
2024/01/07 11:05:49;;;;;;;9.65;6.55;;;4.80;99.90;;;;;;5043934;28;20227;-75
2024/01/07 11:08:40;;;;;;;10.20;8.00;;;4.80;99.90;;;;;;5035616;28;20304;-73
2024/01/07 11:11:32;;;;;;;11.40;8.52;;;4.80;99.90;;;;;;5026172;28;20688;-73
2024/01/07 11:14:39;;;;;;;10.50;8.00;;;4.70;99.90;;;;;;5024553;28;20716;-73
2024/01/07 11:17:46;;;;;;;10.63;7.70;;;4.70;99.90;;;;;;5045512;28;20205;-73
2024/01/07 11:20:33;;;;;;;12.70;9.00;;;4.70;99.90;;;;;;5048007;28;20210;-73
2024/01/07 11:23:32;;;;;;;11.07;8.50;;;4.80;99.90;;;;;;5040594;28;20206;-73
2024/01/07 11:26:18;;;;;;;9.02;7.25;;;4.80;99.90;;;;;;5032809;28;20196;-73
2024/01/07 11:29:03;;;;;;;11.50;8.60;;;4.80;99.90;;;;;;5037394;28;20229;-73
2024/01/07 11:31:50;;;;;;;12.35;9.10;;;4.80;99.90;;;;;;5028179;28;20214;-73
2024/01/07 11:34:47;;;;;;;10.88;8.95;;;4.80;99.90;;;;;;5037677;28;20225;-73
2024/01/07 11:37:32;;;;;;;11.57;8.60;;;4.70;99.90;;;;;;5047424;28;20213;-73
2024/01/07 11:40:18;;;;;;;11.27;7.95;;;4.70;99.90;;;;;;5049825;28;20209;-73
2024/01/07 11:43:05;;;;;;;10.73;8.50;;;4.50;99.90;;;;;;5048925;28;20729;-73
2024/01/07 11:45:51;;;;;;;10.90;8.70;;;4.50;99.90;;;;;;5046647;28;20649;-73
2024/01/07 11:48:37;;;;;;;13.25;9.05;;;4.60;99.90;;;;;;5033023;28;20233;-73
2024/01/07 11:51:25;;;;;;;11.88;8.35;;;4.40;99.90;;;;;;5044079;28;20209;-73
2024/01/07 11:54:11;;;;;;;13.73;9.18;;;4.40;99.90;;;;;;5050383;28;20779;-73
2024/01/07 11:56:56;;;;;;;11.65;8.90;;;4.50;99.90;;;;;;5048384;28;20684;-73
2024/01/07 11:59:42;;;;;;;10.32;7.65;;;4.50;99.90;;;;;;5047580;28;20232;-73
2024/01/07 12:02:30;;;;;;;16.95;9.77;;;4.40;99.90;;;;;;5049161;28;20223;-73
2024/01/07 12:05:16;;;;;;;12.40;8.40;;;4.40;99.90;;;;;;5033518;28;20197;-73
2024/01/07 12:08:03;;;;;;;10.80;8.00;;;4.40;99.90;;;;;;5028074;28;20376;-74
2024/01/07 12:10:50;;;;;;;15.30;9.20;;;4.40;99.90;;;;;;5041455;28;20200;-73
2024/01/07 12:13:37;;;;;;;11.25;9.05;;;4.40;99.90;;;;;;5049813;28;20229;-73
2024/01/07 12:16:23;;;;;;;12.10;8.95;;;4.40;99.90;;;;;;5040854;28;20218;-73
2024/01/07 12:19:09;;;;;;;14.60;8.70;;;4.30;99.90;;;;;;5040919;28;20220;-73
2024/01/07 12:22:03;;;;;;;13.10;8.88;;;4.30;99.90;;;;;;5040139;28;20755;-73
2024/01/07 12:25:01;;;;;;;13.77;9.20;;;4.20;99.90;;;;;;5052765;28;20684;-73
2024/01/07 12:27:47;;;;;;;16.98;11.10;;;4.20;99.90;;;;;;5038598;28;20225;-73
2024/01/07 12:30:33;;;;;;;15.30;10.15;;;4.10;99.90;;;;;;5036979;28;20206;-73
2024/01/07 12:33:20;;;;;;;17.58;9.60;;;4.00;99.90;;;;;;5046820;28;20248;-73
2024/01/07 12:36:07;;;;;;;12.02;8.98;;;4.00;99.90;;;;;;5053883;28;20213;-73
2024/01/07 12:38:54;;;;;;;13.27;8.90;;;4.00;99.90;;;;;;5047199;28;20233;-72
2024/01/07 12:41:41;;;;;;;13.65;9.32;;;4.00;99.90;;;;;;5053158;28;20320;-73
2024/01/07 12:44:29;;;;;;;13.30;9.40;;;4.00;99.90;;;;;;5036906;28;20221;-73
2024/01/07 12:47:14;;;;;;;14.07;9.38;;;3.90;99.90;;;;;;5041226;28;20208;-73
2024/01/07 12:50:00;;;;;;;17.02;9.70;;;4.00;99.90;;;;;;5053803;28;20197;-73
2024/01/07 12:52:46;;;;;;;13.82;9.18;;;4.00;99.90;;;;;;5051490;28;20208;-73
2024/01/07 12:55:31;;;;;;;11.43;8.75;;;4.10;99.90;;;;;;5046598;28;20226;-73
2024/01/07 12:58:18;;;;;;;16.45;10.70;;;4.00;99.90;;;;;;5037322;28;20719;-75
2024/01/07 13:01:04;;;;;;;14.77;9.52;;;4.00;99.90;;;;;;5053684;28;20276;-74
2024/01/07 13:03:50;;;;;;;13.88;8.75;;;3.90;99.90;;;;;;5031527;28;20567;-74
2024/01/07 13:06:36;;;;;;;14.15;8.80;;;3.90;99.90;;;;;;5034000;28;20209;-74
2024/01/07 13:09:21;;;;;;;11.52;8.52;;;3.90;99.90;;;;;;5033706;28;20640;-74
2024/01/07 13:12:07;;;;;;;14.27;8.98;;;3.90;99.90;;;;;;5046066;28;20587;-74
2024/01/07 13:14:54;;;;;;;13.10;8.85;;;3.80;99.90;;;;;;5033732;28;20300;-74
2024/01/07 13:17:40;;;;;;;15.25;10.38;;;3.80;99.90;;;;;;5042740;28;20204;-74
2024/01/07 13:20:25;;;;;;;13.80;9.73;;;3.80;99.90;;;;;;5032595;28;20205;-74
2024/01/07 13:23:11;;;;;;;17.50;9.18;;;3.80;99.90;;;;;;5033300;28;20200;-74
2024/01/07 13:25:57;;;;;;;12.60;9.30;;;3.80;99.90;;;;;;5034254;28;20194;-74
2024/01/07 13:28:43;;;;;;;13.30;8.60;;;3.70;99.90;;;;;;5031364;28;20287;-74
2024/01/07 13:31:29;;;;;;;13.57;8.90;;;3.70;99.90;;;;;;5030725;28;20270;-74
2024/01/07 13:34:15;;;;;;;13.05;8.35;;;3.70;99.90;;;;;;5029273;28;20218;-74
2024/01/07 13:37:00;;;;;;;15.95;9.93;;;3.60;99.90;;;;;;5037354;28;20229;-74
2024/01/07 13:39:46;;;;;;;11.98;9.25;;;3.60;99.90;;;;;;5032419;28;21474;-74
2024/01/07 13:42:33;;;;;;;14.48;9.27;;;3.70;99.90;;;;;;5030342;28;20206;-74
2024/01/07 13:45:20;;;;;;;17.63;9.35;;;3.60;99.90;;;;;;5026842;28;20206;-74
2024/01/07 13:48:08;;;;;;;15.85;9.75;;;3.70;99.90;;;;;;5036295;28;20576;-74
2024/01/07 13:50:54;;;;;;;15.80;9.55;;;3.70;99.90;;;;;;5043297;28;20209;-74
2024/01/07 13:53:40;;;;;;;12.40;8.32;;;3.70;99.90;;;;;;5042375;28;20619;-74
2024/01/07 13:56:26;;;;;;;13.70;8.48;;;3.70;99.90;;;;;;5029133;28;20205;-74
2024/01/07 13:59:12;;;;;;;13.43;8.98;;;3.60;99.90;;;;;;5032511;28;20957;-74
2024/01/07 14:01:59;;;;;;;13.57;9.27;;;3.60;99.90;;;;;;5042715;28;20206;-74
2024/01/07 14:04:46;;;;;;;10.90;7.90;;;3.50;99.90;;;;;;5031264;28;20205;-74
2024/01/07 14:07:32;;;;;;;12.65;9.23;;;3.50;99.90;;;;;;5041493;28;20193;-74
2024/01/07 14:10:19;;;;;;;14.30;9.63;;;3.50;99.90;;;;;;5029429;28;20205;-74
2024/01/07 14:13:04;;;;;;;12.77;8.48;;;3.50;99.90;;;;;;5041646;28;20205;-73
2024/01/07 14:15:50;;;;;;;10.32;7.60;;;3.50;99.90;;;;;;5030979;28;20233;-74
2024/01/07 14:18:36;;;;;;;12.48;8.50;;;3.40;99.90;;;;;;5039823;28;20220;-74
2024/01/07 14:21:24;;;;;;;13.23;8.55;;;3.40;99.90;;;;;;5029258;28;20197;-74